createdAt,value
2022-12-31T00:01:19.354Z,2.16
2022-12-31T00:04:22.355Z,2.15
2022-12-31T00:07:25.058Z,2.13
2022-12-31T00:10:28.819Z,2.12
2022-12-31T00:13:32.225Z,2.07
2022-12-31T00:16:38.042Z,1.92
2022-12-31T00:19:40.647Z,2.02
2022-12-31T00:22:43.504Z,2.04
2022-12-31T00:25:46.076Z,2.02
2022-12-31T00:28:49.585Z,2.00
2022-12-31T00:31:52.526Z,2.01
2022-12-31T00:34:55.333Z,2.02
2022-12-31T00:37:58.021Z,2.03
2022-12-31T00:41:01.118Z,2.03
2022-12-31T00:44:04.078Z,1.94
2022-12-31T00:47:06.855Z,2.02
2022-12-31T00:50:09.769Z,2.00
2022-12-31T00:53:12.842Z,1.97
2022-12-31T00:56:19.053Z,1.97
2022-12-31T00:59:21.967Z,1.93
2022-12-31T01:02:24.880Z,1.98
2022-12-31T01:05:28.038Z,1.98
2022-12-31T01:08:31.354Z,1.96
2022-12-31T01:11:34.519Z,1.98
2022-12-31T01:14:37.338Z,1.96
2022-12-31T01:17:40.273Z,1.98
2022-12-31T01:20:43.973Z,1.97
2022-12-31T01:23:46.903Z,1.96
2022-12-31T01:26:51.210Z,1.97
2022-12-31T01:29:54.078Z,1.97
2022-12-31T01:32:56.784Z,1.98
2022-12-31T01:36:07.791Z,1.99
2022-12-31T01:39:11.148Z,1.96
2022-12-31T01:42:13.999Z,1.96
2022-12-31T01:45:16.869Z,1.96
2022-12-31T01:48:24.112Z,1.95
2022-12-31T01:51:28.632Z,1.86
2022-12-31T01:54:35.686Z,1.97
2022-12-31T01:57:38.522Z,1.99
2022-12-31T02:00:42.399Z,1.99
2022-12-31T02:03:45.339Z,1.98
2022-12-31T02:06:55.364Z,1.97
2022-12-31T02:09:58.282Z,1.97
2022-12-31T02:13:01.361Z,1.96
2022-12-31T02:16:21.782Z,1.94
2022-12-31T02:19:46.305Z,1.97
2022-12-31T02:22:54.318Z,1.99
2022-12-31T02:26:27.853Z,2.00
2022-12-31T02:29:51.951Z,1.97
2022-12-31T02:33:33.443Z,1.97
2022-12-31T02:36:40.083Z,1.99
2022-12-31T02:39:43.720Z,1.94
2022-12-31T02:42:51.542Z,1.94
2022-12-31T02:46:31.967Z,1.95
2022-12-31T02:49:56.744Z,1.96
2022-12-31T02:53:14.576Z,1.98
2022-12-31T02:56:52.447Z,1.99
2022-12-31T03:00:20.464Z,2.01
2022-12-31T03:03:23.473Z,1.97
2022-12-31T03:06:26.108Z,2.00
2022-12-31T03:09:28.986Z,2.01
2022-12-31T03:12:48.722Z,2.01
2022-12-31T03:15:51.627Z,1.99
2022-12-31T03:19:12.575Z,1.96
2022-12-31T03:22:27.396Z,1.96
2022-12-31T03:25:41.794Z,1.97
2022-12-31T03:28:48.056Z,1.96
2022-12-31T03:31:50.891Z,1.95
2022-12-31T03:34:54.025Z,1.94
2022-12-31T03:37:56.797Z,1.93
2022-12-31T03:40:59.817Z,1.96
2022-12-31T03:44:02.282Z,1.94
2022-12-31T03:47:05.558Z,1.93
2022-12-31T03:50:09.549Z,1.92
2022-12-31T03:53:12.988Z,1.91
2022-12-31T03:56:15.596Z,1.92
2022-12-31T03:59:18.676Z,1.90
2022-12-31T04:02:28.144Z,1.90
2022-12-31T04:05:32.360Z,1.85
2022-12-31T04:08:35.091Z,1.88
2022-12-31T04:11:38.403Z,1.87
2022-12-31T04:14:41.019Z,1.88
2022-12-31T04:17:43.980Z,1.88
2022-12-31T04:20:46.878Z,1.89
2022-12-31T04:23:49.636Z,1.88
2022-12-31T04:26:52.280Z,1.88
2022-12-31T04:29:55.125Z,1.89
2022-12-31T04:32:57.697Z,1.90
2022-12-31T04:36:01.981Z,1.90
2022-12-31T04:39:04.530Z,1.92
2022-12-31T04:42:07.294Z,1.92
2022-12-31T04:45:10.738Z,1.92
2022-12-31T04:48:13.576Z,1.89
2022-12-31T04:51:16.438Z,1.95
2022-12-31T04:54:19.470Z,1.93
2022-12-31T04:57:22.446Z,1.94
2022-12-31T05:00:25.295Z,1.96
2022-12-31T05:03:27.951Z,1.94
2022-12-31T05:06:30.724Z,1.97
2022-12-31T05:09:33.281Z,1.99
2022-12-31T05:12:36.348Z,2.00
2022-12-31T05:15:39.671Z,2.02
2022-12-31T05:18:42.785Z,2.01
2022-12-31T05:22:05.475Z,2.01
2022-12-31T05:25:08.932Z,2.02
2022-12-31T05:28:11.906Z,2.03
2022-12-31T05:31:14.960Z,1.96
2022-12-31T05:34:17.608Z,2.05
2022-12-31T05:37:20.626Z,2.04
2022-12-31T05:40:23.128Z,2.05
2022-12-31T05:43:25.941Z,2.06
2022-12-31T05:46:28.483Z,2.06
2022-12-31T05:49:31.639Z,2.06
2022-12-31T05:52:34.354Z,2.05
2022-12-31T05:55:37.193Z,2.04
2022-12-31T05:58:39.789Z,2.04
2022-12-31T06:01:42.901Z,2.04
2022-12-31T06:04:45.853Z,2.04
2022-12-31T06:07:48.322Z,2.06
2022-12-31T06:10:51.246Z,2.05
2022-12-31T06:13:53.807Z,2.03
2022-12-31T06:16:56.695Z,2.03
2022-12-31T06:19:59.911Z,2.02
2022-12-31T06:23:02.860Z,2.02
2022-12-31T06:26:05.880Z,1.99
2022-12-31T06:29:10.354Z,2.05
2022-12-31T06:32:12.959Z,2.04
2022-12-31T06:35:16.038Z,2.02
2022-12-31T06:38:18.707Z,1.98
2022-12-31T06:41:21.942Z,2.02
2022-12-31T06:44:24.645Z,2.03
2022-12-31T06:47:27.462Z,2.04
2022-12-31T06:50:30.124Z,2.05
2022-12-31T06:53:33.610Z,2.05
2022-12-31T06:56:36.364Z,2.08
2022-12-31T06:59:39.661Z,2.09
2022-12-31T07:03:14.843Z,2.09
2022-12-31T07:06:29.623Z,2.11
2022-12-31T07:09:40.412Z,2.12
2022-12-31T07:12:52.327Z,2.13
2022-12-31T07:16:22.324Z,2.15
2022-12-31T07:19:28.783Z,2.14
2022-12-31T07:22:31.715Z,2.16
2022-12-31T07:25:35.564Z,2.17
2022-12-31T07:28:41.442Z,2.17
2022-12-31T07:32:26.897Z,2.19
2022-12-31T07:35:35.063Z,2.22
2022-12-31T07:38:54.077Z,2.25
2022-12-31T07:42:17.871Z,3.39
2022-12-31T07:45:25.372Z,2.96
2022-12-31T07:48:29.146Z,2.78
2022-12-31T07:51:32.275Z,2.67
2022-12-31T07:54:35.200Z,2.60
2022-12-31T07:57:51.262Z,2.58
2022-12-31T08:00:56.538Z,2.57
2022-12-31T08:04:02.644Z,2.55
2022-12-31T08:07:20.933Z,2.58
2022-12-31T08:10:23.823Z,2.62
2022-12-31T08:13:26.750Z,2.67
2022-12-31T08:16:30.499Z,2.71
2022-12-31T08:19:33.545Z,2.71
2022-12-31T08:22:42.769Z,2.78
2022-12-31T08:25:51.375Z,2.84
2022-12-31T08:29:00.702Z,2.90
2022-12-31T08:32:12.275Z,2.97
2022-12-31T08:35:45.732Z,3.08
2022-12-31T08:39:08.165Z,3.15
2022-12-31T08:42:31.509Z,3.19
2022-12-31T08:45:47.668Z,2.40
2022-12-31T08:48:50.792Z,3.21
2022-12-31T08:51:53.907Z,3.24
2022-12-31T08:54:57.195Z,3.21
2022-12-31T08:58:34.964Z,3.28
2022-12-31T09:02:07.612Z,3.30
2022-12-31T09:05:34.915Z,3.34
2022-12-31T09:09:06.483Z,3.36
2022-12-31T09:12:11.759Z,3.39
2022-12-31T09:15:17.737Z,3.42
2022-12-31T09:18:20.718Z,3.55
2022-12-31T09:21:23.904Z,4.47
2022-12-31T09:24:26.864Z,4.46
2022-12-31T09:27:47.098Z,4.19
2022-12-31T09:31:06.866Z,3.99
2022-12-31T09:34:32.360Z,3.86
2022-12-31T09:37:49.407Z,3.81
2022-12-31T09:41:01.720Z,3.77
2022-12-31T09:44:33.730Z,3.53
2022-12-31T09:48:08.808Z,2.69
2022-12-31T09:51:21.771Z,4.22
2022-12-31T09:54:28.139Z,4.06
2022-12-31T09:57:42.268Z,4.00
2022-12-31T10:01:19.920Z,3.96
2022-12-31T10:04:51.967Z,3.94
2022-12-31T10:08:15.625Z,3.99
2022-12-31T10:12:12.341Z,4.03
2022-12-31T10:15:36.223Z,4.05
2022-12-31T10:18:44.887Z,4.07
2022-12-31T10:22:11.142Z,4.10
2022-12-31T10:25:51.559Z,4.14
2022-12-31T10:29:27.297Z,4.20
2022-12-31T10:33:14.887Z,4.25
2022-12-31T10:36:32.107Z,4.25
2022-12-31T10:39:34.981Z,4.79
2022-12-31T10:42:43.530Z,4.93
2022-12-31T10:45:58.667Z,4.78
2022-12-31T10:49:11.176Z,4.69
2022-12-31T10:52:50.506Z,4.66
2022-12-31T10:56:17.844Z,4.64
2022-12-31T10:59:58.529Z,4.63
2022-12-31T11:03:58.697Z,4.58
2022-12-31T11:07:20.473Z,4.59
2022-12-31T11:10:43.177Z,4.58
2022-12-31T11:14:21.128Z,4.57
2022-12-31T11:17:29.551Z,4.56
2022-12-31T11:20:44.625Z,4.51
2022-12-31T11:24:07.539Z,4.51
2022-12-31T11:27:13.393Z,4.51
2022-12-31T11:30:21.532Z,4.50
2022-12-31T11:33:40.635Z,4.49
2022-12-31T11:36:51.356Z,4.51
2022-12-31T11:40:06.084Z,4.51
2022-12-31T11:43:31.801Z,4.80
2022-12-31T11:46:56.732Z,5.05
2022-12-31T11:50:21.066Z,4.93
2022-12-31T11:54:10.031Z,4.88
2022-12-31T11:57:20.534Z,4.86
2022-12-31T12:00:25.880Z,4.85
2022-12-31T12:03:29.039Z,4.83
2022-12-31T12:06:32.702Z,4.81
2022-12-31T12:09:35.779Z,4.81
2022-12-31T12:12:40.254Z,4.81
2022-12-31T12:15:49.787Z,4.82
2022-12-31T12:19:07.152Z,4.84
2022-12-31T12:22:12.338Z,4.81
2022-12-31T12:25:21.115Z,4.87
2022-12-31T12:28:26.592Z,4.90
2022-12-31T12:31:29.275Z,4.90
2022-12-31T12:34:40.886Z,4.91
2022-12-31T12:37:45.859Z,4.72
2022-12-31T12:40:58.008Z,4.99
2022-12-31T12:44:08.794Z,5.03
2022-12-31T12:47:16.097Z,5.05
2022-12-31T12:50:24.451Z,5.06
2022-12-31T12:53:42.776Z,5.09
2022-12-31T12:56:55.894Z,5.12
2022-12-31T13:00:18.217Z,5.15
2022-12-31T13:03:33.088Z,5.16
2022-12-31T13:07:14.779Z,5.16
2022-12-31T13:10:43.275Z,5.20
2022-12-31T13:13:49.315Z,5.22
2022-12-31T13:16:54.887Z,5.22
2022-12-31T13:20:26.664Z,5.78
2022-12-31T13:23:39.893Z,5.75
2022-12-31T13:26:58.666Z,5.60
2022-12-31T13:30:07.359Z,5.52
2022-12-31T13:33:20.694Z,5.46
2022-12-31T13:36:25.237Z,5.41
2022-12-31T13:39:36.957Z,5.37
2022-12-31T13:42:44.146Z,5.37
2022-12-31T13:45:50.690Z,5.37
2022-12-31T13:49:05.552Z,5.35
2022-12-31T13:52:14.634Z,5.43
2022-12-31T13:55:23.423Z,5.49
2022-12-31T13:58:49.857Z,5.54
2022-12-31T14:01:58.239Z,5.60
2022-12-31T14:05:16.215Z,5.62
2022-12-31T14:08:18.918Z,5.63
2022-12-31T14:11:31.203Z,5.55
2022-12-31T14:14:42.356Z,5.62
2022-12-31T14:18:00.959Z,5.62
2022-12-31T14:21:12.373Z,5.61
2022-12-31T14:24:44.284Z,5.59
2022-12-31T14:27:47.614Z,5.61
2022-12-31T14:31:05.096Z,5.62
2022-12-31T14:34:22.188Z,5.63
2022-12-31T14:37:45.960Z,5.63
2022-12-31T14:41:07.395Z,5.59
2022-12-31T14:44:28.733Z,5.59
2022-12-31T14:47:36.055Z,5.62
2022-12-31T14:50:40.703Z,5.61
2022-12-31T14:53:53.316Z,5.59
2022-12-31T14:56:56.146Z,5.99
2022-12-31T15:00:00.984Z,6.01
2022-12-31T15:03:15.878Z,5.89
2022-12-31T15:06:25.004Z,5.81
2022-12-31T15:09:43.028Z,5.77
2022-12-31T15:13:01.960Z,5.69
2022-12-31T15:16:38.286Z,5.63
2022-12-31T15:20:16.929Z,5.31
2022-12-31T15:23:26.624Z,5.52
2022-12-31T15:26:31.888Z,5.49
2022-12-31T15:29:41.950Z,5.46
2022-12-31T15:32:47.093Z,5.43
2022-12-31T15:35:55.619Z,5.38
2022-12-31T15:39:42.900Z,5.40
2022-12-31T15:42:52.464Z,5.46
2022-12-31T15:45:56.026Z,5.46
2022-12-31T15:49:25.359Z,5.46
2022-12-31T15:52:32.735Z,5.43
2022-12-31T15:55:48.738Z,5.40
2022-12-31T15:58:55.646Z,5.39
2022-12-31T16:01:58.779Z,5.35
2022-12-31T16:05:01.900Z,5.82
2022-12-31T16:08:04.977Z,5.67
2022-12-31T16:11:08.610Z,5.59
2022-12-31T16:14:19.825Z,5.57
2022-12-31T16:17:30.236Z,5.43
2022-12-31T16:20:34.696Z,5.36
2022-12-31T16:23:42.258Z,5.27
2022-12-31T16:26:49.322Z,5.17
2022-12-31T16:29:58.663Z,5.13
2022-12-31T16:33:06.357Z,5.10
2022-12-31T16:36:23.293Z,5.09
2022-12-31T16:39:31.582Z,5.07
2022-12-31T16:42:42.430Z,5.05
2022-12-31T16:45:46.852Z,5.04
2022-12-31T16:49:16.157Z,5.03
2022-12-31T16:52:34.191Z,5.05
2022-12-31T16:55:37.152Z,5.01
2022-12-31T16:58:45.207Z,5.00
2022-12-31T17:01:49.570Z,4.91
2022-12-31T17:04:56.313Z,5.12
2022-12-31T17:08:18.822Z,5.55
2022-12-31T17:11:39.263Z,5.32
2022-12-31T17:14:51.023Z,5.30
2022-12-31T17:17:58.883Z,5.18
2022-12-31T17:21:08.478Z,5.00
2022-12-31T17:24:12.406Z,4.85
2022-12-31T17:27:15.974Z,4.75
2022-12-31T17:30:40.276Z,4.66
2022-12-31T17:33:43.256Z,4.60
2022-12-31T17:36:52.292Z,5.41
2022-12-31T17:40:48.757Z,5.16
2022-12-31T17:43:31.509Z,4.96
2022-12-31T17:46:39.188Z,4.79
2022-12-31T17:49:45.247Z,4.70
2022-12-31T17:52:48.686Z,4.81
2022-12-31T17:55:52.857Z,4.80
2022-12-31T17:58:55.903Z,4.79
2022-12-31T18:02:00.913Z,4.81
2022-12-31T18:05:14.569Z,4.80
2022-12-31T18:08:17.312Z,4.91
2022-12-31T18:11:22.937Z,4.98
2022-12-31T18:14:25.521Z,5.00
2022-12-31T18:17:29.012Z,5.03
2022-12-31T18:20:32.107Z,5.02
2022-12-31T18:23:41.377Z,5.04
2022-12-31T18:26:44.104Z,5.05
2022-12-31T18:29:47.361Z,5.09
2022-12-31T18:32:50.648Z,5.09
2022-12-31T18:36:10.267Z,5.08
2022-12-31T18:39:13.368Z,5.10
2022-12-31T18:42:18.699Z,5.17
2022-12-31T18:45:21.679Z,5.18
2022-12-31T18:48:24.629Z,5.21
2022-12-31T18:51:32.066Z,5.20
2022-12-31T18:54:35.407Z,5.29
2022-12-31T18:57:38.155Z,5.33
2022-12-31T19:00:41.544Z,5.36
2022-12-31T19:03:44.132Z,5.41
2022-12-31T19:06:48.057Z,5.51
2022-12-31T19:09:54.753Z,5.52
2022-12-31T19:13:01.272Z,5.54
2022-12-31T19:16:04.005Z,5.54
2022-12-31T19:19:08.784Z,5.41
2022-12-31T19:22:15.224Z,5.16
2022-12-31T19:25:21.579Z,5.02
2022-12-31T19:28:26.218Z,5.06
2022-12-31T19:31:29.171Z,4.92
2022-12-31T19:34:32.028Z,4.78
2022-12-31T19:37:34.819Z,4.68
2022-12-31T19:40:37.506Z,4.76
2022-12-31T19:43:40.479Z,4.79
2022-12-31T19:46:43.150Z,4.70
2022-12-31T19:49:46.565Z,4.56
2022-12-31T19:52:50.742Z,4.52
2022-12-31T19:55:53.982Z,4.83
2022-12-31T19:58:56.704Z,4.91
2022-12-31T20:01:59.761Z,4.91
2022-12-31T20:05:02.827Z,4.85
2022-12-31T20:08:05.793Z,4.88
2022-12-31T20:11:14.814Z,4.90
2022-12-31T20:14:17.575Z,4.88
2022-12-31T20:17:20.427Z,4.92
2022-12-31T20:20:23.751Z,4.94
2022-12-31T20:23:26.737Z,5.00
2022-12-31T20:26:29.587Z,5.02
2022-12-31T20:29:33.191Z,4.85
2022-12-31T20:32:36.201Z,4.63
2022-12-31T20:35:39.297Z,4.58
2022-12-31T20:38:42.263Z,4.62
2022-12-31T20:41:45.270Z,4.46
2022-12-31T20:44:47.781Z,4.75
2022-12-31T20:47:51.026Z,4.73
2022-12-31T20:50:57.919Z,4.75
2022-12-31T20:54:06.629Z,4.80
2022-12-31T20:57:09.142Z,4.81
2022-12-31T21:00:14.235Z,4.80
2022-12-31T21:04:02.495Z,4.74
2022-12-31T21:06:43.090Z,4.67
2022-12-31T21:09:45.761Z,4.50
2022-12-31T21:12:53.397Z,4.43
2022-12-31T21:15:56.214Z,4.34
2022-12-31T21:18:59.257Z,4.19
2022-12-31T21:22:01.997Z,4.21
2022-12-31T21:25:05.447Z,4.17
2022-12-31T21:28:08.775Z,4.11
2022-12-31T21:31:13.048Z,4.08
2022-12-31T21:34:15.748Z,4.02
2022-12-31T21:37:18.627Z,4.01
2022-12-31T21:40:22.339Z,3.98
2022-12-31T21:43:25.420Z,4.04
2022-12-31T21:46:28.331Z,4.38
2022-12-31T21:49:31.308Z,4.60
2022-12-31T21:52:35.107Z,4.77
2022-12-31T21:55:57.899Z,4.80
2022-12-31T21:59:18.668Z,4.86
2022-12-31T22:02:40.730Z,4.87
2022-12-31T22:06:12.268Z,4.72
2022-12-31T22:09:15.035Z,4.43
2022-12-31T22:12:17.899Z,4.26
2022-12-31T22:15:20.443Z,4.13
2022-12-31T22:18:23.723Z,4.21
2022-12-31T22:21:26.892Z,4.13
2022-12-31T22:24:29.851Z,4.20
2022-12-31T22:27:32.340Z,4.33
2022-12-31T22:30:35.432Z,4.39
2022-12-31T22:33:38.116Z,4.51
2022-12-31T22:36:40.999Z,4.60
2022-12-31T22:39:45.136Z,4.70
2022-12-31T22:42:48.068Z,4.78
2022-12-31T22:45:50.685Z,4.87
2022-12-31T22:48:56.791Z,4.92
2022-12-31T22:52:02.835Z,4.87
2022-12-31T22:55:09.999Z,4.81
2022-12-31T22:58:12.523Z,4.81
2022-12-31T23:01:19.281Z,4.85
2022-12-31T23:04:21.857Z,4.92
2022-12-31T23:07:24.889Z,4.99
2022-12-31T23:10:46.137Z,4.99
2022-12-31T23:14:07.953Z,4.98
2022-12-31T23:17:35.107Z,4.98
2022-12-31T23:20:57.239Z,4.99
2022-12-31T23:23:59.966Z,5.01
2022-12-31T23:27:03.045Z,4.97
2022-12-31T23:30:06.284Z,4.90
2022-12-31T23:33:21.311Z,4.86
2022-12-31T23:36:23.944Z,4.96
2022-12-31T23:39:26.830Z,5.04
2022-12-31T23:42:29.431Z,5.08
2022-12-31T23:45:33.693Z,5.11
2022-12-31T23:48:36.401Z,5.13
2022-12-31T23:51:40.249Z,5.10
2022-12-31T23:54:42.982Z,5.10
2022-12-31T23:57:45.896Z,5.10
